Time;durP1;ratioP1;P1;durP2;ratioP2;P2;SDS_P1;SDS_P2;PMS_P1;PMS_P2;Temp;Humidity;BMP_temperature;BMP_pressure;BME280_temperature;BME280_humidity;BME280_pressure;Samples;Min_cycle;Max_cycle;Signal;HPM_P1;HPM_P2
2020/12/03 00:02:25;;;;;;;73.57;30.83;;;;;;;13.51;74.56;100722.47;5073307;28;20028;-61
2020/12/03 00:04:50;;;;;;;76.85;30.42;;;;;;;13.51;75.52;100711.72;5072658;28;20040;-60
2020/12/03 00:07:16;;;;;;;76.57;29.77;;;;;;;13.91;73.76;100714.91;5073491;28;20078;-60
2020/12/03 00:09:43;;;;;;;71.87;29.80;;;;;;;13.86;72.69;100703.16;5072141;28;20040;-60
2020/12/03 00:12:09;;;;;;;72.78;28.90;;;;;;;14.41;70.02;100690.81;5073183;28;20048;-60
2020/12/03 00:14:35;;;;;;;88.30;32.47;;;;;;;14.42;68.53;100682.53;5073642;28;20048;-59
2020/12/03 00:17:00;;;;;;;79.73;29.80;;;;;;;13.73;74.09;100685.28;5071328;28;20499;-59
2020/12/03 00:19:26;;;;;;;75.27;30.30;;;;;;;14.03;72.41;100673.84;5073346;28;20451;-60
2020/12/03 00:21:58;;;;;;;75.43;29.20;;;;;;;14.24;70.22;100669.91;5072654;28;20036;-59
2020/12/03 00:24:30;;;;;;;72.40;29.70;;;;;;;13.79;72.35;100679.03;5073187;28;20136;-60
2020/12/03 00:26:56;;;;;;;77.75;30.88;;;;;;;14.05;71.08;100656.44;5072558;28;20036;-60
2020/12/03 00:29:23;;;;;;;74.57;30.17;;;;;;;14.08;71.07;100649.81;5073001;28;20048;-59
2020/12/03 00:31:49;;;;;;;80.32;28.20;;;;;;;14.05;70.91;100642.16;5072042;28;20043;-60
2020/12/03 00:34:17;;;;;;;73.13;30.42;;;;;;;13.99;70.51;100638.53;5073241;28;20044;-59
2020/12/03 00:36:42;;;;;;;83.80;30.60;;;;;;;14.38;68.20;100637.44;5071747;28;20387;-59
2020/12/03 00:39:11;;;;;;;74.75;30.85;;;;;;;14.49;67.81;100639.41;5072338;28;20043;-61
2020/12/03 00:41:37;;;;;;;74.15;29.10;;;;;;;14.68;66.47;100628.59;5072876;28;20037;-60
2020/12/03 00:44:04;;;;;;;79.13;29.20;;;;;;;14.05;70.55;100634.09;5072162;28;20048;-60
2020/12/03 00:46:31;;;;;;;75.18;28.88;;;;;;;14.25;68.64;100601.63;5072811;28;20352;-60
2020/12/03 00:48:57;;;;;;;63.42;26.85;;;;;;;13.95;71.41;100613.09;5072056;28;20037;-60
2020/12/03 00:51:24;;;;;;;77.07;29.30;;;;;;;14.33;68.51;100592.41;5072762;28;20036;-61
2020/12/03 00:53:50;;;;;;;72.25;28.83;;;;;;;13.95;70.83;100610.41;5070984;28;20032;-60
2020/12/03 00:56:19;;;;;;;69.97;28.27;;;;;;;14.29;69.68;100607.34;5071428;28;20074;-60
2020/12/03 00:58:47;;;;;;;69.28;29.02;;;;;;;14.58;66.41;100604.94;5070756;28;20039;-59
2020/12/03 01:01:15;;;;;;;68.75;28.15;;;;;;;14.64;66.72;100601.31;5072653;28;20040;-60
2020/12/03 01:03:40;;;;;;;67.85;28.90;;;;;;;14.23;68.45;100601.03;5072356;28;20067;-58
2020/12/03 01:06:06;;;;;;;63.73;27.73;;;;;;;14.33;67.54;100582.47;5071761;28;20083;-61
2020/12/03 01:08:31;;;;;;;60.90;27.63;;;;;;;14.18;68.83;100588.25;5072617;28;20161;-60
2020/12/03 01:10:57;;;;;;;59.20;26.15;;;;;;;14.23;67.43;100560.69;5055907;28;20286;-61
2020/12/03 01:13:23;;;;;;;66.50;24.77;;;;;;;13.97;69.34;100583.31;5052518;28;20393;-59
2020/12/03 01:15:49;;;;;;;53.30;23.92;;;;;;;13.65;72.33;100570.03;5052042;28;20348;-60
2020/12/03 01:18:15;;;;;;;67.60;24.73;;;;;;;13.59;72.72;100571.75;5052902;28;20121;-60
2020/12/03 01:20:40;;;;;;;68.10;25.20;;;;;;;14.13;68.83;100558.53;5067403;28;20457;-60
2020/12/03 01:23:05;;;;;;;56.77;23.57;;;;;;;13.47;72.77;100568.97;5055412;28;20099;-60
2020/12/03 01:25:31;;;;;;;58.57;23.27;;;;;;;13.53;72.04;100546.56;5052193;28;20112;-59
2020/12/03 01:27:57;;;;;;;54.57;23.07;;;;;;;13.71;71.31;100558.38;5068151;28;20498;-59
2020/12/03 01:30:23;;;;;;;52.70;23.63;;;;;;;14.00;68.99;100554.13;5071094;28;20388;-61
2020/12/03 01:32:48;;;;;;;56.10;23.27;;;;;;;14.00;68.94;100529.09;5071789;28;20273;-57
2020/12/03 01:35:16;;;;;;;53.25;22.90;;;;;;;13.47;71.39;100534.03;5072278;28;20055;-60
2020/12/03 01:37:42;;;;;;;49.50;23.27;;;;;;;13.69;69.82;100528.22;5065226;28;20091;-60
2020/12/03 01:40:12;;;;;;;54.00;20.67;;;;;;;13.61;70.39;100537.41;5058632;28;20498;-60
2020/12/03 01:42:39;;;;;;;52.00;21.90;;;;;;;13.44;71.86;100526.44;5051875;28;20484;-60
2020/12/03 01:45:42;;;;;;;49.25;21.83;;;;;;;13.98;67.43;100533.88;5051333;28;20421;-59
2020/12/03 01:48:20;;;;;;;54.38;21.88;;;;;;;13.42;71.45;100533.84;5051318;28;20393;-59
2020/12/03 01:50:46;;;;;;;50.45;19.50;;;;;;;13.41;70.87;100530.34;5052117;28;20048;-60
2020/12/03 01:53:16;;;;;;;49.33;20.27;;;;;;;13.56;70.24;100535.38;5053291;28;20036;-60
2020/12/03 01:55:41;;;;;;;46.25;19.13;;;;;;;13.47;70.88;100536.72;5055808;28;20507;-61
2020/12/03 01:58:15;;;;;;;49.07;20.57;;;;;;;13.47;69.88;100525.97;5055350;28;20033;-61
2020/12/03 02:00:40;;;;;;;56.42;21.58;;;;;;;13.84;68.51;100527.84;5055832;28;20534;-61
2020/12/03 02:03:05;;;;;;;51.67;20.63;;;;;;;13.79;69.18;100533.88;5055348;28;20033;-59
2020/12/03 02:05:31;;;;;;;45.67;19.10;;;;;;;13.32;70.53;100529.78;5055656;28;20037;-60
2020/12/03 02:07:57;;;;;;;47.73;18.30;;;;;;;13.26;71.63;100509.19;5055385;28;20460;-60
2020/12/03 02:10:24;;;;;;;53.37;20.63;;;;;;;13.81;68.04;100515.66;5055814;28;20131;-60
2020/12/03 02:12:51;;;;;;;47.92;21.02;;;;;;;13.84;67.53;100509.03;5055008;28;20473;-57
2020/12/03 02:15:19;;;;;;;45.65;20.00;;;;;;;13.73;68.26;100502.53;5055433;28;20064;-60
2020/12/03 02:17:44;;;;;;;50.55;19.50;;;;;;;13.52;69.96;100507.31;5055535;28;20123;-59
2020/12/03 02:20:14;;;;;;;42.07;20.77;;;;;;;13.16;71.88;100484.75;5054707;28;20717;-60
2020/12/03 02:22:39;;;;;;;42.45;20.42;;;;;;;13.67;68.64;100482.75;5055210;28;20040;-60
2020/12/03 02:25:06;;;;;;;48.77;19.30;;;;;;;13.59;69.70;100480.38;5054645;28;20045;-60
2020/12/03 02:27:32;;;;;;;42.30;16.65;;;;;;;13.20;71.16;100485.94;5055367;28;20072;-60
2020/12/03 02:29:58;;;;;;;49.88;21.08;;;;;;;13.70;68.41;100481.50;5054536;28;20083;-61
2020/12/03 02:32:23;;;;;;;48.80;19.83;;;;;;;13.56;68.81;100495.06;5055050;28;20033;-59
2020/12/03 02:34:49;;;;;;;44.87;18.93;;;;;;;13.80;67.01;100478.28;5054213;28;20093;-60
2020/12/03 02:37:15;;;;;;;46.80;20.00;;;;;;;13.86;67.66;100469.31;5053492;28;20052;-59
2020/12/03 02:39:41;;;;;;;53.47;20.75;;;;;;;13.97;65.45;100465.88;5055275;28;20078;-59
2020/12/03 02:42:10;;;;;;;52.58;21.48;;;;;;;14.11;65.48;100452.22;5054472;28;20396;-60
2020/12/03 02:44:40;;;;;;;42.65;19.80;;;;;;;13.56;69.05;100452.09;5055383;28;20029;-60
2020/12/03 02:47:06;;;;;;;49.95;19.08;;;;;;;13.80;67.22;100449.53;5054818;28;20135;-61
2020/12/03 02:49:31;;;;;;;39.67;20.00;;;;;;;13.95;65.88;100451.81;5055045;28;20060;-61
2020/12/03 02:51:57;;;;;;;46.47;21.88;;;;;;;13.50;68.16;100426.13;5054404;28;20380;-61
2020/12/03 02:54:22;;;;;;;48.83;20.53;;;;;;;13.64;66.87;100439.41;5054680;28;20468;-60
2020/12/03 02:56:48;;;;;;;48.63;19.87;;;;;;;13.59;67.12;100419.41;5054765;28;20033;-60
2020/12/03 02:59:14;;;;;;;44.77;20.70;;;;;;;13.40;68.73;100439.25;5054218;28;20044;-62
2020/12/03 03:01:39;;;;;;;52.03;22.27;;;;;;;13.66;65.88;100423.88;5054549;28;20102;-62
2020/12/03 03:04:05;;;;;;;49.33;20.53;;;;;;;13.52;66.99;100421.34;5053050;28;20040;-61
2020/12/03 03:06:35;;;;;;;52.38;25.08;;;;;;;13.59;66.41;100430.13;5036752;28;20381;-59
2020/12/03 03:09:02;;;;;;;51.63;22.25;;;;;;;13.45;66.91;100415.25;5054101;28;20068;-61
2020/12/03 03:11:28;;;;;;;47.20;22.92;;;;;;;13.28;67.14;100410.44;5054509;28;20025;-61
2020/12/03 03:13:53;;;;;;;37.30;17.23;;;;;;;13.33;66.66;100429.38;5053638;28;20072;-61
2020/12/03 03:16:19;;;;;;;44.10;17.83;;;;;;;13.23;67.84;100412.97;5054247;28;20037;-59
2020/12/03 03:18:44;;;;;;;39.30;16.60;;;;;;;13.50;65.81;100407.34;5053320;28;20032;-59
2020/12/03 03:21:11;;;;;;;53.03;20.33;;;;;;;13.86;63.85;100408.31;5053810;28;20036;-61
2020/12/03 03:23:36;;;;;;;;;;;;;;;13.86;63.72;100402.94;5054788;28;20082;-60
2020/12/03 03:26:02;;;;;;;41.17;16.87;;;;;;;13.87;63.62;100395.69;5053453;28;20276;-60
2020/12/03 03:28:27;;;;;;;37.97;16.02;;;;;;;13.31;65.39;100388.50;5053978;28;20187;-60
2020/12/03 03:30:53;;;;;;;39.40;14.97;;;;;;;13.25;66.68;100375.16;5054261;28;20086;-59
2020/12/03 03:33:18;;;;;;;41.90;16.20;;;;;;;13.56;64.59;100374.19;5053334;28;20393;-60
2020/12/03 03:35:44;;;;;;;40.30;16.10;;;;;;;13.54;64.57;100386.22;5054138;28;20120;-60
2020/12/03 03:38:09;;;;;;;38.03;15.83;;;;;;;13.38;65.89;100363.44;5053544;28;20032;-60
2020/12/03 03:40:35;;;;;;;39.93;13.73;;;;;;;13.51;64.48;100366.00;5054256;28;20032;-60
2020/12/03 03:43:00;;;;;;;42.67;16.83;;;;;;;13.67;63.81;100369.09;5053515;28;20068;-59
2020/12/03 03:45:25;;;;;;;46.87;18.57;;;;;;;13.41;65.87;100365.69;5052751;28;20021;-60
2020/12/03 03:47:51;;;;;;;40.70;17.27;;;;;;;13.61;65.03;100358.22;5052755;28;20029;-60
2020/12/03 03:50:17;;;;;;;34.30;15.73;;;;;;;13.46;64.92;100350.53;5053374;28;20029;-60
2020/12/03 03:52:42;;;;;;;45.75;16.73;;;;;;;13.95;62.36;100335.41;5052703;28;20040;-60
2020/12/03 03:55:08;;;;;;;38.73;17.27;;;;;;;13.65;64.23;100357.75;5052108;28;20029;-59
2020/12/03 03:57:33;;;;;;;46.10;18.40;;;;;;;13.77;63.92;100353.22;5053749;28;20404;-59
2020/12/03 03:59:59;;;;;;;37.57;16.70;;;;;;;13.51;65.57;100346.38;5053421;28;20024;-59
2020/12/03 04:02:25;;;;;;;42.33;16.23;;;;;;;13.54;65.41;100338.66;5053777;28;20068;-59
2020/12/03 04:04:51;;;;;;;41.60;16.77;;;;;;;13.72;64.62;100332.41;5053541;28;20024;-61
2020/12/03 04:07:17;;;;;;;44.85;15.18;;;;;;;13.40;66.91;100337.19;5052617;28;20083;-61
2020/12/03 04:09:43;;;;;;;35.67;16.23;;;;;;;14.13;62.32;100329.97;5053389;28;20100;-60
2020/12/03 04:12:09;;;;;;;29.83;13.43;;;;;;;13.66;64.32;100324.47;5051665;28;20080;-61
2020/12/03 04:14:35;;;;;;;37.83;14.80;;;;;;;13.60;64.52;100320.81;5053602;28;20441;-61
2020/12/03 04:17:00;;;;;;;38.28;15.43;;;;;;;14.17;62.49;100323.06;5052562;28;20037;-60
2020/12/03 04:19:26;;;;;;;35.83;14.83;;;;;;;13.89;63.11;100303.03;5052836;28;20048;-61
2020/12/03 04:21:52;;;;;;;33.13;14.67;;;;;;;13.75;63.87;100313.16;5052987;28;20029;-60
2020/12/03 04:24:17;;;;;;;31.35;14.52;;;;;;;13.15;68.42;100303.22;5052650;28;20075;-60
2020/12/03 04:26:43;;;;;;;47.90;18.05;;;;;;;13.28;68.24;100289.59;5052888;28;20136;-61
2020/12/03 04:29:09;;;;;;;36.93;18.50;;;;;;;13.57;67.87;100283.66;5051138;28;20044;-60
2020/12/03 04:31:34;;;;;;;42.33;20.37;;;;;;;13.32;69.08;100282.72;5053348;28;20270;-60
2020/12/03 04:34:00;;;;;;;47.83;22.15;;;;;;;13.68;66.65;100266.75;5052509;28;20045;-58
2020/12/03 04:36:26;;;;;;;50.60;23.97;;;;;;;13.60;66.99;100264.41;5053107;28;20067;-60
2020/12/03 04:38:52;;;;;;;47.80;23.05;;;;;;;13.69;67.69;100264.91;5053016;28;20387;-61
2020/12/03 04:41:18;;;;;;;55.20;20.63;;;;;;;13.40;69.85;100270.03;5052078;28;20037;-61
2020/12/03 04:43:50;;;;;;;44.92;21.17;;;;;;;13.98;67.31;100262.38;5051591;28;20353;-61
2020/12/03 04:46:24;;;;;;;43.85;20.40;;;;;;;14.20;65.33;100254.56;5052553;28;20090;-60
2020/12/03 04:49:03;;;;;;;37.45;17.80;;;;;;;14.48;62.93;100237.69;5052813;28;20044;-59
2020/12/03 04:51:47;;;;;;;40.85;16.13;;;;;;;13.95;66.19;100246.72;5052518;28;20041;-61
2020/12/03 04:54:24;;;;;;;37.17;17.30;;;;;;;13.82;67.92;100237.78;5051694;28;20408;-60
2020/12/03 04:57:25;;;;;;;38.63;17.65;;;;;;;14.11;66.03;100237.13;5052939;28;20036;-59
2020/12/03 05:00:00;;;;;;;45.03;19.48;;;;;;;14.06;66.62;100232.44;5052548;28;20035;-60
2020/12/03 05:02:52;;;;;;;39.25;17.88;;;;;;;14.47;63.77;100227.97;5052302;28;20106;-60
2020/12/03 05:05:24;;;;;;;39.72;18.83;;;;;;;14.38;63.72;100210.56;5050406;28;20114;-59
2020/12/03 05:07:58;;;;;;;44.17;19.52;;;;;;;14.37;63.96;100208.94;5052483;28;20055;-59
2020/12/03 05:10:39;;;;;;;40.85;19.75;;;;;;;14.53;63.24;100212.75;5051966;28;20035;-61
2020/12/03 05:13:25;;;;;;;42.92;18.88;;;;;;;14.36;64.48;100195.72;5051953;28;20049;-61
2020/12/03 05:15:57;;;;;;;43.28;20.17;;;;;;;14.33;63.70;100210.47;5051408;28;20040;-60
2020/12/03 05:18:57;;;;;;;40.10;19.08;;;;;;;14.26;65.50;100213.28;5051784;28;20041;-59
2020/12/03 05:21:28;;;;;;;40.05;19.33;;;;;;;14.03;66.86;100212.22;5051367;28;20056;-60
2020/12/03 05:23:54;;;;;;;47.22;19.75;;;;;;;13.98;67.08;100197.84;5051315;28;20127;-59
2020/12/03 05:26:31;;;;;;;44.37;19.43;;;;;;;14.19;66.62;100194.56;5051746;28;20123;-61
2020/12/03 05:29:01;;;;;;;41.30;19.25;;;;;;;14.17;66.32;100179.72;5051345;28;20029;-60
2020/12/03 05:31:29;;;;;;;43.63;18.70;;;;;;;13.99;68.67;100191.41;5051579;28;20044;-59
2020/12/03 05:34:05;;;;;;;40.70;18.02;;;;;;;14.39;65.91;100182.63;5051942;28;20040;-61
2020/12/03 05:36:34;;;;;;;41.10;18.88;;;;;;;13.90;70.23;100181.03;5052569;28;20033;-59
2020/12/03 05:39:03;;;;;;;41.45;19.63;;;;;;;14.32;67.11;100171.19;5050935;28;20135;-60
2020/12/03 05:41:33;;;;;;;38.88;17.80;;;;;;;13.94;69.72;100172.50;5052117;28;20123;-60
2020/12/03 05:43:59;;;;;;;42.80;18.75;;;;;;;14.10;69.42;100155.66;5052111;28;20037;-60
2020/12/03 05:46:25;;;;;;;41.10;19.27;;;;;;;14.25;69.50;100154.34;5063056;28;20028;-59
2020/12/03 05:48:56;;;;;;;35.08;17.98;;;;;;;14.24;69.20;100152.69;5071430;28;20093;-60
2020/12/03 05:51:29;;;;;;;42.78;19.70;;;;;;;14.96;64.81;100151.44;5068370;28;20067;-59
2020/12/03 05:54:00;;;;;;;35.13;17.45;;;;;;;14.42;68.34;100149.06;5069708;28;20040;-60
2020/12/03 05:56:26;;;;;;;43.08;20.05;;;;;;;14.18;70.27;100149.06;5071424;28;20040;-60
2020/12/03 05:58:52;;;;;;;45.47;21.25;;;;;;;14.38;69.19;100139.81;5072129;28;20041;-60
2020/12/03 06:01:21;;;;;;;39.88;19.75;;;;;;;14.24;70.21;100136.56;5070101;28;20044;-60
2020/12/03 06:04:06;;;;;;;49.70;20.80;;;;;;;14.69;67.29;100138.53;5070232;28;20039;-59
2020/12/03 06:06:47;;;;;;;51.17;24.20;;;;;;;14.45;68.35;100114.41;5071889;28;20210;-59
2020/12/03 06:09:31;;;;;;;47.78;22.48;;;;;;;14.87;66.13;100116.00;5070064;28;20055;-59
2020/12/03 06:12:34;;;;;;;61.17;24.92;;;;;;;14.85;66.53;100107.38;5071534;28;20047;-60
2020/12/03 06:15:19;;;;;;;57.17;22.38;;;;;;;14.30;70.74;100097.94;5071556;28;20041;-60
2020/12/03 06:18:22;;;;;;;58.03;22.65;;;;;;;14.06;72.81;100098.00;5072161;28;20131;-60
2020/12/03 06:21:00;;;;;;;54.45;23.33;;;;;;;13.88;74.02;100091.75;5071474;28;20145;-60
2020/12/03 06:23:41;;;;;;;54.88;21.92;;;;;;;14.05;72.51;100091.00;5070950;28;20037;-60
2020/12/03 06:26:18;;;;;;;58.10;24.00;;;;;;;14.01;73.26;100079.94;5071108;28;20040;-57
2020/12/03 06:29:10;;;;;;;;;;;;;;;14.05;73.44;100077.56;5071765;28;20054;-59
2020/12/03 06:32:04;;;;;;;49.53;22.00;;;;;;;14.08;72.64;100058.28;5071588;28;19961;-59
2020/12/03 06:34:39;;;;;;;51.22;22.10;;;;;;;13.89;73.77;100063.81;5071120;28;20040;-60
2020/12/03 06:37:18;;;;;;;48.20;21.73;;;;;;;14.34;71.38;100066.88;5071432;28;20097;-60
2020/12/03 06:39:54;;;;;;;53.25;23.38;;;;;;;14.08;71.86;100046.72;5073951;28;20033;-60
2020/12/03 06:42:29;;;;;;;49.83;22.27;;;;;;;14.33;71.27;100067.91;5074308;28;20507;-60
2020/12/03 06:45:13;;;;;;;55.80;22.40;;;;;;;14.30;70.21;100055.75;5074679;28;20040;-60
2020/12/03 06:48:16;;;;;;;43.80;21.15;;;;;;;14.54;68.18;100055.66;5074682;28;20063;-60
2020/12/03 06:51:12;;;;;;;47.67;19.67;;;;;;;13.87;72.81;100049.81;5074921;28;20039;-58
2020/12/03 06:54:09;;;;;;;47.00;20.50;;;;;;;14.27;70.32;100041.97;5074789;28;20039;-61
2020/12/03 06:57:07;;;;;;;57.08;21.27;;;;;;;13.66;75.49;100036.97;5073907;28;20050;-60
2020/12/03 07:00:08;;;;;;;52.42;21.50;;;;;;;13.94;73.49;100030.03;5076014;28;20033;-61
2020/12/03 07:03:11;;;;;;;50.50;20.00;;;;;;;14.08;72.56;100035.94;5075295;28;20425;-60
2020/12/03 07:05:55;;;;;;;56.00;23.08;;;;;;;14.00;72.31;100042.50;5053981;28;20060;-59
2020/12/03 07:08:40;;;;;;;46.63;19.88;;;;;;;14.23;71.26;100033.56;5073491;28;20074;-58
2020/12/03 07:11:27;;;;;;;46.90;19.98;;;;;;;13.60;74.58;100044.91;5074904;28;20028;-60
2020/12/03 07:14:31;;;;;;;48.10;21.58;;;;;;;13.65;75.03;100041.53;5070815;28;20040;-60
2020/12/03 07:17:11;;;;;;;47.88;19.35;;;;;;;13.90;73.26;100033.19;5074159;28;20060;-59
2020/12/03 07:19:55;;;;;;;55.47;20.40;;;;;;;14.01;71.56;100020.78;5073825;28;20111;-60
2020/12/03 07:22:27;;;;;;;56.72;22.73;;;;;;;13.77;74.11;100017.31;5069853;28;20054;-60
2020/12/03 07:24:55;;;;;;;51.50;22.70;;;;;;;13.62;74.83;100024.03;5073666;28;20043;-61
2020/12/03 07:27:41;;;;;;;53.65;23.48;;;;;;;13.64;73.98;100031.03;5073336;28;20086;-59
2020/12/03 07:30:12;;;;;;;47.45;20.92;;;;;;;13.88;73.14;100016.50;5073801;28;20025;-60
2020/12/03 07:32:55;;;;;;;56.42;22.80;;;;;;;13.98;71.82;100007.00;5072672;28;20369;-59
2020/12/03 07:35:30;;;;;;;55.80;22.00;;;;;;;14.60;68.48;100013.53;5073049;28;20041;-60
2020/12/03 07:38:22;;;;;;;59.38;22.02;;;;;;;14.01;71.52;100009.19;5073412;28;20059;-59
2020/12/03 07:40:56;;;;;;;50.85;20.67;;;;;;;13.81;72.98;100005.03;5074092;28;20483;-60
2020/12/03 07:44:01;;;;;;;43.97;20.77;;;;;;;13.57;73.24;100005.09;5071345;28;20467;-59
2020/12/03 07:46:27;;;;;;;42.55;19.98;;;;;;;14.00;70.92;100002.19;5065596;28;20043;-60
2020/12/03 07:48:52;;;;;;;33.63;16.77;;;;;;;13.87;71.20;99992.53;5056374;28;20396;-59
2020/12/03 07:51:18;;;;;;;43.23;18.90;;;;;;;14.20;69.82;99980.28;5054845;28;20029;-60
2020/12/03 07:53:45;;;;;;;41.53;17.13;;;;;;;14.03;69.78;99956.84;5072913;28;20036;-60
2020/12/03 07:56:25;;;;;;;37.38;15.50;;;;;;;14.01;71.23;99976.94;5073000;28;20463;-60
2020/12/03 07:58:52;;;;;;;31.70;17.27;;;;;;;14.02;71.58;99973.19;5065415;28;20043;-60
2020/12/03 08:01:26;;;;;;;35.92;17.27;;;;;;;13.46;75.15;99968.34;5067935;28;20043;-60
2020/12/03 08:04:12;;;;;;;33.65;15.43;;;;;;;13.75;73.35;99955.78;5091694;28;20185;-60
2020/12/03 08:06:43;;;;;;;43.03;18.17;;;;;;;13.98;72.40;99955.91;5076430;28;20455;-60
2020/12/03 08:09:09;;;;;;;37.40;16.88;;;;;;;13.54;74.24;99961.78;5072974;28;20111;-60
2020/12/03 08:11:46;;;;;;;41.33;16.73;;;;;;;13.43;75.75;99966.13;5070585;28;20488;-59
2020/12/03 08:14:48;;;;;;;38.10;17.50;;;;;;;14.27;70.62;99967.50;5073204;28;20174;-60
2020/12/03 08:17:16;;;;;;;40.60;17.30;;;;;;;13.48;75.63;99955.47;5071902;28;20107;-59
2020/12/03 08:19:44;;;;;;;47.75;19.67;;;;;;;13.70;73.98;99958.34;5072889;28;20079;-59
2020/12/03 08:22:22;;;;;;;48.35;19.58;;;;;;;13.34;76.68;99953.00;5072631;28;20539;-61
2020/12/03 08:24:48;;;;;;;46.08;19.58;;;;;;;13.64;75.10;99945.06;5072677;28;20037;-60
2020/12/03 08:27:19;;;;;;;38.40;19.47;;;;;;;13.76;73.83;99945.81;5072914;28;20586;-59
2020/12/03 08:29:44;;;;;;;43.92;19.85;;;;;;;13.82;73.45;99954.81;5072248;28;20119;-60
2020/12/03 08:32:09;;;;;;;54.80;20.00;;;;;;;13.72;73.68;99952.75;5072257;28;20056;-60
2020/12/03 08:34:36;;;;;;;50.03;20.73;;;;;;;13.58;74.75;99944.94;5070599;28;20032;-60
2020/12/03 08:37:03;;;;;;;46.22;21.92;;;;;;;13.25;75.37;99934.81;5072481;28;20055;-61
2020/12/03 08:39:30;;;;;;;43.03;19.52;;;;;;;13.43;73.91;99945.44;5071910;28;20044;-60
2020/12/03 08:41:56;;;;;;;48.83;21.52;;;;;;;13.55;73.17;99936.56;5072267;28;20032;-60
2020/12/03 08:44:23;;;;;;;46.88;19.63;;;;;;;13.36;73.77;99928.63;5071763;28;20108;-61
2020/12/03 08:46:49;;;;;;;45.97;17.52;;;;;;;13.39;73.74;99928.13;5070989;28;20472;-59
2020/12/03 08:49:23;;;;;;;46.43;17.77;;;;;;;13.58;72.01;99925.31;5071243;28;20052;-60
2020/12/03 08:51:54;;;;;;;37.22;16.83;;;;;;;13.50;71.95;99910.41;5066667;28;20095;-59
2020/12/03 08:54:24;;;;;;;40.28;17.52;;;;;;;13.54;71.82;99919.59;5054018;28;20048;-59
2020/12/03 08:56:57;;;;;;;37.50;15.70;;;;;;;13.79;69.93;99931.91;5051930;28;20041;-60
2020/12/03 08:59:30;;;;;;;42.22;15.77;;;;;;;13.38;71.98;99933.72;5056205;28;20041;-59
2020/12/03 09:02:01;;;;;;;42.08;16.50;;;;;;;13.85;69.71;99917.53;5071247;28;20097;-60
2020/12/03 09:04:30;;;;;;;35.50;14.90;;;;;;;13.59;69.20;99905.47;5071142;28;20090;-60
2020/12/03 09:06:57;;;;;;;42.78;15.73;;;;;;;13.51;70.20;99913.91;5071003;28;20080;-60
2020/12/03 09:09:25;;;;;;;33.95;15.43;;;;;;;14.27;65.31;99908.31;5058475;28;20040;-60
2020/12/03 09:11:51;;;;;;;34.22;15.90;;;;;;;14.41;65.40;99913.38;5063153;28;20039;-60
2020/12/03 09:14:17;;;;;;;39.72;15.88;;;;;;;13.83;67.31;99900.00;5053307;28;20072;-59
2020/12/03 09:16:45;;;;;;;30.92;12.70;;;;;;;13.94;67.17;99904.50;5051409;28;20112;-60
2020/12/03 09:19:10;;;;;;;27.77;13.82;;;;;;;13.62;69.04;99905.81;5050531;28;20384;-60
2020/12/03 09:21:38;;;;;;;33.53;16.10;;;;;;;13.54;69.89;99898.13;5049133;28;20045;-59
2020/12/03 09:24:05;;;;;;;32.42;13.93;;;;;;;13.70;68.16;99885.00;5063057;28;20094;-60
2020/12/03 09:26:34;;;;;;;38.90;16.23;;;;;;;13.82;66.73;99880.38;5070784;28;20071;-59
2020/12/03 09:29:02;;;;;;;32.60;15.07;;;;;;;13.71;67.94;99879.34;5071070;28;20051;-60
2020/12/03 09:31:32;;;;;;;34.80;16.67;;;;;;;13.80;67.50;99855.59;5067368;28;20112;-60
2020/12/03 09:33:58;;;;;;;33.15;15.00;;;;;;;13.92;66.71;99844.81;5071451;28;20033;-59
2020/12/03 09:36:24;;;;;;;;;;;;;;;13.66;69.29;99838.16;5054204;28;20469;-59
2020/12/03 09:38:51;;;;;;;44.83;16.70;;;;;;;13.87;68.02;99839.34;5071496;28;19969;-60
2020/12/03 09:41:26;;;;;;;32.65;14.15;;;;;;;13.59;69.57;99841.00;5071782;28;20048;-60
2020/12/03 09:43:54;;;;;;;41.08;15.18;;;;;;;13.84;67.82;99832.59;5068372;28;20251;-60
2020/12/03 09:46:25;;;;;;;35.80;14.27;;;;;;;14.02;66.11;99801.16;5051486;28;20365;-61
2020/12/03 09:48:54;;;;;;;30.20;15.07;;;;;;;13.94;67.00;99785.44;5058915;28;20037;-59
2020/12/03 09:51:24;;;;;;;37.03;15.90;;;;;;;13.80;68.15;99793.81;5065996;28;20033;-59
2020/12/03 09:53:51;;;;;;;41.90;18.48;;;;;;;14.01;66.24;99802.22;5071389;28;20392;-60
2020/12/03 09:56:20;;;;;;;41.58;16.45;;;;;;;13.75;68.21;99799.09;5070275;28;20105;-59
2020/12/03 09:58:46;;;;;;;40.67;17.77;;;;;;;14.25;66.77;99785.91;5066130;28;20365;-61
2020/12/03 10:01:14;;;;;;;40.60;17.30;;;;;;;13.42;70.63;99787.22;5060966;28;20044;-60
2020/12/03 10:04:11;;;;;;;45.78;18.30;;;;;;;13.47;71.54;99784.63;5050512;28;20507;-60
2020/12/03 10:07:18;;;;;;;47.72;19.98;;;;;;;13.41;71.24;99783.69;5049578;28;20053;-57
2020/12/03 10:10:02;;;;;;;43.03;20.15;;;;;;;13.50;72.10;99768.03;5060478;28;20480;-61
2020/12/03 10:12:34;;;;;;;48.47;18.27;;;;;;;13.76;68.99;99757.72;5071521;28;20045;-59
2020/12/03 10:15:13;;;;;;;53.25;20.58;;;;;;;13.91;68.37;99743.72;5069041;28;20040;-61
2020/12/03 10:17:50;;;;;;;41.20;21.52;;;;;;;13.71;69.49;99746.91;5056393;28;20068;-60
2020/12/03 10:20:17;;;;;;;41.80;18.05;;;;;;;14.12;66.37;99733.28;5074499;28;20032;-61
2020/12/03 10:22:47;;;;;;;47.25;21.20;;;;;;;14.20;66.06;99732.91;5073361;28;20060;-61
2020/12/03 10:25:20;;;;;;;41.58;20.58;;;;;;;13.45;71.03;99722.31;5075617;28;20041;-61
2020/12/03 10:28:00;;;;;;;43.83;19.75;;;;;;;14.12;66.22;99715.31;5074015;28;20108;-60
2020/12/03 10:30:37;;;;;;;41.25;18.70;;;;;;;14.17;65.52;99695.72;5075469;28;20040;-60
2020/12/03 10:33:13;;;;;;;50.08;19.85;;;;;;;14.26;64.84;99713.09;5075032;28;20033;-60
2020/12/03 10:35:47;;;;;;;38.25;18.42;;;;;;;13.95;68.24;99707.22;5055600;28;20048;-61
2020/12/03 10:38:19;;;;;;;42.55;18.33;;;;;;;13.82;68.11;99715.66;5074763;28;20037;-59
2020/12/03 10:40:50;;;;;;;43.97;18.48;;;;;;;13.87;67.65;99695.06;5073950;28;20548;-60
2020/12/03 10:43:24;;;;;;;43.25;18.92;;;;;;;13.06;72.38;99690.72;5074745;28;20068;-60
2020/12/03 10:45:52;;;;;;;40.95;17.63;;;;;;;14.05;67.71;99687.75;5073269;28;20044;-60
2020/12/03 10:48:23;;;;;;;37.85;16.77;;;;;;;13.50;69.83;99692.84;5066128;28;20033;-60
2020/12/03 10:50:51;;;;;;;38.03;16.58;;;;;;;13.79;68.14;99700.81;5072539;28;20101;-61
2020/12/03 10:53:22;;;;;;;33.92;15.70;;;;;;;13.90;68.61;99697.25;5053039;28;20048;-59
2020/12/03 10:55:56;;;;;;;41.55;18.23;;;;;;;14.05;66.90;99677.00;5071596;28;20358;-59
2020/12/03 10:58:27;;;;;;;37.25;17.52;;;;;;;13.73;68.54;99664.19;5086639;28;20480;-59
2020/12/03 11:00:53;;;;;;;44.35;16.75;;;;;;;13.59;69.96;99687.88;5065317;28;20345;-60
2020/12/03 11:03:22;;;;;;;;;;;;;;;13.96;68.04;99678.50;5074856;28;20479;-59
2020/12/03 11:05:48;;;;;;;41.47;17.05;;;;;;;14.45;65.41;99667.88;5072783;28;20086;-59
2020/12/03 11:08:14;;;;;;;49.83;16.43;;;;;;;14.04;66.66;99670.00;5074504;28;20043;-61
2020/12/03 11:10:41;;;;;;;39.50;15.30;;;;;;;14.10;66.96;99662.84;5071639;28;20040;-59
2020/12/03 11:13:08;;;;;;;33.92;15.30;;;;;;;13.46;70.06;99664.84;5062817;28;20033;-60
2020/12/03 11:15:33;;;;;;;;;;;;;;;14.20;66.41;99658.41;5051894;28;20037;-58
2020/12/03 11:18:04;;;;;;;39.83;16.20;;;;;;;14.16;65.74;99633.09;5058130;28;19962;-59
2020/12/03 11:20:35;;;;;;;35.38;16.92;;;;;;;14.23;65.12;99624.00;5055175;28;20112;-59
2020/12/03 11:23:07;;;;;;;33.83;16.17;;;;;;;14.81;62.26;99629.03;5064720;28;20626;-60
2020/12/03 11:25:33;;;;;;;45.10;17.23;;;;;;;14.18;66.01;99614.81;5072320;28;20029;-60
2020/12/03 11:28:11;;;;;;;29.67;14.45;;;;;;;14.29;64.54;99628.38;5055024;28;20413;-60
2020/12/03 11:30:37;;;;;;;42.72;16.30;;;;;;;14.44;63.33;99631.28;5052563;28;20531;-60
2020/12/03 11:33:02;;;;;;;29.20;13.77;;;;;;;13.73;67.20;99615.81;5068121;28;20070;-60
2020/12/03 11:35:35;;;;;;;32.67;16.00;;;;;;;14.06;65.78;99592.63;5055320;28;20044;-60